Time;durP1;ratioP1;P1;durP2;ratioP2;P2;SDS_P1;SDS_P2;PMS_P1;PMS_P2;Temp;Humidity;BMP_temperature;BMP_pressure;BME280_temperature;BME280_humidity;BME280_pressure;Samples;Min_cycle;Max_cycle;Signal;HPM_P1;HPM_P2
2022/09/08 00:02:24;;;;;;;1.60;1.00;;;;;;;20.26;58.97;98270.94;4894903;29;20052;-66
2022/09/08 00:04:51;;;;;;;3.25;0.90;;;;;;;20.23;59.39;98262.63;4903248;29;20041;-66
2022/09/08 00:07:18;;;;;;;1.00;0.90;;;;;;;20.20;59.75;98261.28;4895806;29;20049;-66
2022/09/08 00:09:45;;;;;;;0.70;0.70;;;;;;;20.21;59.78;98262.09;4911780;29;20575;-66
2022/09/08 00:12:12;;;;;;;0.75;0.75;;;;;;;20.23;60.45;98251.88;4898157;29;20055;-66
2022/09/08 00:14:39;;;;;;;0.80;0.80;;;;;;;20.21;60.34;98249.50;4904326;29;20040;-66
2022/09/08 00:17:06;;;;;;;0.63;0.63;;;;;;;20.21;60.25;98251.38;4901475;29;20350;-64
2022/09/08 00:19:32;;;;;;;0.60;0.60;;;;;;;20.23;60.12;98249.22;4901586;29;20056;-67
2022/09/08 00:21:59;;;;;;;0.60;0.60;;;;;;;20.24;60.58;98245.44;4904174;29;20199;-64
2022/09/08 00:24:26;;;;;;;0.85;0.85;;;;;;;20.24;60.52;98246.25;4909079;29;20041;-66
2022/09/08 00:26:52;;;;;;;1.25;0.90;;;;;;;20.21;60.27;98236.06;4912753;29;20052;-64
2022/09/08 00:29:19;;;;;;;0.82;0.82;;;;;;;20.19;60.70;98234.72;4904751;29;20051;-64
2022/09/08 00:31:46;;;;;;;1.17;0.90;;;;;;;20.17;60.55;98245.72;4914667;29;20048;-64
2022/09/08 00:34:13;;;;;;;0.70;0.70;;;;;;;20.18;61.17;98243.84;4907159;29;20048;-64
2022/09/08 00:36:40;;;;;;;0.75;0.70;;;;;;;20.20;60.97;98239.00;4921427;29;20104;-66
2022/09/08 00:39:06;;;;;;;0.52;0.52;;;;;;;20.20;60.91;98233.63;4929981;29;20068;-65
2022/09/08 00:41:33;;;;;;;1.13;0.80;;;;;;;20.18;61.10;98244.66;4926618;29;20072;-65
2022/09/08 00:44:35;;;;;;;0.70;0.70;;;;;;;20.12;61.31;98232.28;4930013;29;20056;-66
2022/09/08 00:47:03;;;;;;;0.82;0.82;;;;;;;19.99;62.11;98228.25;4932296;29;20079;-64
2022/09/08 00:49:31;;;;;;;0.90;0.90;;;;;;;19.93;62.52;98229.34;4917873;29;20052;-64
2022/09/08 00:51:58;;;;;;;1.23;1.08;;;;;;;19.91;63.17;98233.34;4934171;29;20078;-64
2022/09/08 00:54:25;;;;;;;0.65;0.65;;;;;;;19.90;63.58;98221.81;4932793;29;20048;-64
2022/09/08 00:56:54;;;;;;;0.80;0.80;;;;;;;19.88;63.52;98215.94;4927999;29;20048;-65
2022/09/08 00:59:22;;;;;;;0.95;0.73;;;;;;;19.84;63.59;98216.72;4921051;29;20093;-65
2022/09/08 01:01:50;;;;;;;1.17;0.82;;;;;;;19.76;63.43;98210.03;4918215;29;20044;-65
2022/09/08 01:04:17;;;;;;;0.80;0.80;;;;;;;19.68;64.17;98214.03;4907004;29;20559;-65
2022/09/08 01:12:45;;;;;;;0.90;0.90;;;;;;;19.55;64.65;98203.78;4919476;29;19923;-65
2022/09/08 01:15:18;;;;;;;1.30;1.02;;;;;;;19.53;65.38;98205.94;4919766;29;20131;-65
2022/09/08 01:17:51;;;;;;;0.95;0.93;;;;;;;19.47;65.70;98210.47;4918073;29;20548;-65
2022/09/08 01:20:20;;;;;;;0.90;0.90;;;;;;;19.45;65.78;98209.13;4918780;29;20497;-64
2022/09/08 01:23:17;;;;;;;1.00;0.93;;;;;;;19.35;66.06;98212.59;4917521;29;20119;-64
2022/09/08 01:26:06;;;;;;;1.33;1.10;;;;;;;19.29;66.25;98210.94;4918825;29;20386;-65
2022/09/08 01:28:56;;;;;;;1.00;1.00;;;;;;;19.19;66.50;98205.56;4917072;29;20056;-65
2022/09/08 01:31:24;;;;;;;1.30;1.17;;;;;;;19.12;66.80;98211.16;4917054;29;20063;-65
2022/09/08 01:33:51;;;;;;;1.48;1.20;;;;;;;19.05;67.31;98203.38;4910708;29;20052;-65
2022/09/08 01:36:18;;;;;;;0.93;0.90;;;;;;;18.97;67.19;98203.88;4911439;29;20445;-65
2022/09/08 01:38:46;;;;;;;1.20;1.10;;;;;;;18.87;67.90;98198.47;4917956;29;20056;-65
2022/09/08 01:41:13;;;;;;;1.05;0.95;;;;;;;18.81;68.76;98199.50;4917275;29;20397;-65
2022/09/08 01:43:40;;;;;;;1.40;0.90;;;;;;;18.82;68.97;98190.44;4917646;29;20111;-65
2022/09/08 01:46:07;;;;;;;1.13;0.90;;;;;;;18.86;69.16;98186.16;4917742;29;20073;-64
2022/09/08 01:48:35;;;;;;;2.20;1.25;;;;;;;18.83;68.64;98192.03;4916914;29;20052;-65
2022/09/08 01:51:04;;;;;;;1.10;1.00;;;;;;;18.78;68.88;98190.13;4916914;29;20416;-65
2022/09/08 01:53:30;;;;;;;1.20;1.10;;;;;;;18.79;69.19;98190.94;4918144;29;20055;-66
2022/09/08 01:55:57;;;;;;;1.00;1.00;;;;;;;18.75;69.66;98184.50;4916557;29;20572;-65
2022/09/08 01:58:24;;;;;;;1.08;1.00;;;;;;;18.76;69.82;98181.53;4915503;29;20112;-65
2022/09/08 02:00:51;;;;;;;1.67;1.10;;;;;;;18.80;69.87;98195.22;4917014;29;20047;-65
2022/09/08 02:03:18;;;;;;;1.10;1.00;;;;;;;18.86;70.56;98194.19;4911394;29;20040;-65
2022/09/08 02:05:45;;;;;;;0.60;0.60;;;;;;;18.93;70.56;98207.31;4910007;29;20060;-65
2022/09/08 02:08:12;;;;;;;0.50;0.50;;;;;;;18.99;70.31;98215.13;4917419;29;20075;-65
2022/09/08 02:10:39;;;;;;;0.50;0.50;;;;;;;19.04;70.03;98207.13;4917701;29;20044;-64
2022/09/08 02:13:06;;;;;;;0.50;0.50;;;;;;;19.09;70.09;98214.34;4916308;29;20456;-66
2022/09/08 02:15:37;;;;;;;0.40;0.40;;;;;;;19.13;70.08;98236.88;4917530;29;20092;-65
2022/09/08 02:18:04;;;;;;;1.00;0.65;;;;;;;19.13;69.70;98244.13;4917169;29;20052;-65
2022/09/08 02:20:32;;;;;;;0.82;0.80;;;;;;;19.04;69.54;98247.28;4917292;29;20076;-65
2022/09/08 02:22:59;;;;;;;2.00;0.90;;;;;;;18.97;69.68;98248.59;4916380;29;20040;-65
2022/09/08 02:25:25;;;;;;;1.30;1.20;;;;;;;18.91;70.02;98236.25;4917669;29;20087;-65
2022/09/08 02:27:52;;;;;;;2.25;0.85;;;;;;;18.84;70.39;98244.50;4917389;29;20047;-65
2022/09/08 02:30:20;;;;;;;1.17;1.08;;;;;;;18.79;70.35;98237.25;4916366;29;20044;-65
2022/09/08 02:32:48;;;;;;;0.90;0.90;;;;;;;18.80;70.47;98251.44;4910719;29;20040;-64
2022/09/08 02:35:15;;;;;;;1.63;0.70;;;;;;;18.78;70.97;98235.66;4892292;29;20040;-65
2022/09/08 02:37:42;;;;;;;0.95;0.90;;;;;;;18.79;70.85;98242.63;4915751;29;20047;-64
2022/09/08 02:40:09;;;;;;;0.77;0.77;;;;;;;18.80;70.49;98241.53;4916247;29;20044;-65
2022/09/08 02:42:36;;;;;;;1.25;1.15;;;;;;;18.77;70.73;98235.91;4916058;29;20062;-65
2022/09/08 02:45:03;;;;;;;1.00;0.88;;;;;;;18.77;71.22;98236.69;4900378;29;20080;-65
2022/09/08 02:47:33;;;;;;;0.80;0.80;;;;;;;18.80;71.27;98244.22;4916766;29;20044;-66
2022/09/08 02:50:00;;;;;;;0.82;0.82;;;;;;;18.82;71.25;98243.97;4915729;29;20040;-65
2022/09/08 02:52:30;;;;;;;0.70;0.70;;;;;;;18.82;71.20;98246.66;4916922;29;20095;-65
2022/09/08 02:54:57;;;;;;;0.68;0.60;;;;;;;18.80;71.21;98243.41;4915758;29;20413;-65
2022/09/08 02:57:27;;;;;;;0.90;0.90;;;;;;;18.78;70.97;98241.00;4915660;29;20424;-66
2022/09/08 02:59:55;;;;;;;0.52;0.52;;;;;;;18.76;71.64;98229.75;4915548;29;20067;-65
2022/09/08 03:02:22;;;;;;;1.48;0.43;;;;;;;18.75;71.25;98220.09;4911522;29;20052;-66
2022/09/08 03:04:49;;;;;;;0.40;0.40;;;;;;;18.72;71.65;98217.94;4906081;29;20051;-66
2022/09/08 03:07:16;;;;;;;0.60;0.60;;;;;;;18.76;72.14;98223.59;4915286;29;20515;-66
2022/09/08 03:09:43;;;;;;;0.63;0.63;;;;;;;18.83;72.27;98218.81;4915381;29;20201;-66
2022/09/08 03:12:10;;;;;;;0.98;0.90;;;;;;;18.89;72.15;98212.41;4916758;29;20044;-66
2022/09/08 03:14:37;;;;;;;0.73;0.70;;;;;;;18.91;71.82;98204.13;4915282;29;20052;-66
2022/09/08 03:17:03;;;;;;;1.23;0.95;;;;;;;18.90;71.75;98197.13;4916235;29;20531;-66
2022/09/08 03:19:30;;;;;;;0.95;0.90;;;;;;;18.84;71.99;98198.19;4899740;29;20115;-65
2022/09/08 03:21:57;;;;;;;0.80;0.80;;;;;;;18.81;72.50;98205.66;4916994;29;20416;-65
2022/09/08 03:24:24;;;;;;;0.85;0.85;;;;;;;18.84;72.68;98206.22;4915384;29;20059;-66
2022/09/08 03:26:50;;;;;;;0.85;0.70;;;;;;;18.84;72.77;98223.09;4915151;29;20131;-66
2022/09/08 03:29:17;;;;;;;0.60;0.60;;;;;;;18.80;72.93;98222.78;4916414;29;20044;-66
2022/09/08 03:31:43;;;;;;;0.80;0.80;;;;;;;18.79;72.97;98215.84;4899620;29;20500;-65
2022/09/08 03:34:10;;;;;;;0.60;0.60;;;;;;;18.77;72.55;98209.94;4904894;29;20051;-66
2022/09/08 03:36:37;;;;;;;0.63;0.63;;;;;;;18.75;73.10;98220.09;4910509;29;20036;-66
2022/09/08 03:39:03;;;;;;;0.60;0.60;;;;;;;18.74;73.18;98218.50;4915192;29;20064;-66
2022/09/08 03:41:30;;;;;;;0.95;0.80;;;;;;;18.74;72.23;98225.72;4916519;29;20412;-66
2022/09/08 03:43:56;;;;;;;1.02;0.93;;;;;;;18.70;72.64;98238.03;4915261;29;20055;-66
2022/09/08 03:46:23;;;;;;;0.50;0.50;;;;;;;18.67;73.33;98235.81;4916405;29;20056;-66
2022/09/08 03:48:50;;;;;;;1.00;0.65;;;;;;;18.66;72.87;98237.69;4916957;29;20051;-64
2022/09/08 03:51:24;;;;;;;0.60;0.60;;;;;;;18.69;73.44;98237.16;4915697;29;20104;-65
2022/09/08 03:56:42;;;;;;;0.80;0.80;;;;;;;18.66;72.81;98231.53;4916373;29;20040;-65
2022/09/08 03:59:09;;;;;;;0.88;0.85;;;;;;;18.60;72.81;98222.66;4916072;29;20441;-65
2022/09/08 04:01:39;;;;;;;0.85;0.85;;;;;;;18.59;72.73;98214.88;5294301;23;20052;-66
2022/09/08 04:04:06;;;;;;;0.73;0.73;;;;;;;18.55;72.57;98202.03;4896080;29;20044;-66
2022/09/08 04:06:33;;;;;;;0.80;0.80;;;;;;;18.52;72.43;98210.56;4895502;29;20045;-66
2022/09/08 04:09:00;;;;;;;0.93;0.80;;;;;;;18.48;72.12;98209.47;4896842;29;20045;-67
2022/09/08 04:11:40;;;;;;;0.80;0.80;;;;;;;18.41;71.72;98213.41;5069138;28;20376;-65
2022/09/08 04:14:07;;;;;;;0.68;0.65;;;;;;;18.35;71.74;98209.91;5068127;28;20518;-65
2022/09/08 04:16:35;;;;;;;0.80;0.70;;;;;;;18.28;71.67;98203.97;5069821;28;20488;-65
2022/09/08 04:19:01;;;;;;;0.60;0.60;;;;;;;18.24;71.93;98206.34;5069261;28;20048;-65
2022/09/08 04:21:28;;;;;;;0.82;0.82;;;;;;;18.20;71.28;98205.25;5069366;28;20037;-67
2022/09/08 04:23:54;;;;;;;0.45;0.45;;;;;;;18.16;71.70;98198.81;5069261;28;20039;-66
2022/09/08 04:26:21;;;;;;;0.60;0.60;;;;;;;18.09;71.49;98200.91;5068921;28;20040;-66
2022/09/08 04:28:47;;;;;;;0.60;0.60;;;;;;;18.08;72.00;98199.28;5069174;28;20045;-65
2022/09/08 04:31:15;;;;;;;0.47;0.47;;;;;;;18.10;72.30;98183.78;5069284;28;20322;-67
2022/09/08 04:33:42;;;;;;;0.43;0.40;;;;;;;18.11;72.01;98190.75;5069594;28;20041;-65
2022/09/08 04:36:17;;;;;;;0.47;0.40;;;;;;;18.11;71.71;98197.97;5048940;28;20041;-65
2022/09/08 04:38:54;;;;;;;0.40;0.40;;;;;;;18.11;71.54;98196.09;5049464;28;20041;-65
2022/09/08 04:41:21;;;;;;;0.43;0.43;;;;;;;18.07;71.71;98190.44;5048991;28;20045;-67
2022/09/08 04:43:47;;;;;;;0.40;0.40;;;;;;;18.05;71.66;98186.44;5049074;28;20451;-66
2022/09/08 04:46:16;;;;;;;0.70;0.60;;;;;;;18.05;72.09;98207.84;5048839;28;20068;-65
2022/09/08 04:48:43;;;;;;;0.40;0.40;;;;;;;18.02;72.13;98205.66;5049258;28;20041;-65
2022/09/08 04:51:12;;;;;;;0.60;0.60;;;;;;;17.99;71.88;98223.00;5048020;28;20049;-65
2022/09/08 04:53:39;;;;;;;0.50;0.50;;;;;;;17.93;72.01;98204.53;5048951;28;20041;-65
2022/09/08 04:56:08;;;;;;;0.40;0.40;;;;;;;17.88;72.36;98226.69;5048965;28;20095;-65
2022/09/08 04:58:37;;;;;;;0.40;0.40;;;;;;;17.88;72.30;98233.88;5049076;28;20570;-64
2022/09/08 05:01:13;;;;;;;0.77;0.60;;;;;;;17.85;71.90;98234.41;5048880;28;20103;-65
2022/09/08 05:03:41;;;;;;;0.73;0.50;;;;;;;17.79;71.82;98225.50;5064867;28;20051;-65
2022/09/08 05:06:10;;;;;;;0.50;0.50;;;;;;;17.76;72.17;98236.72;5067129;28;20052;-65
2022/09/08 05:08:37;;;;;;;0.40;0.40;;;;;;;17.76;72.04;98250.88;5067419;28;20098;-66
2022/09/08 05:11:07;;;;;;;0.70;0.50;;;;;;;17.77;71.97;98247.16;5068177;28;20041;-66
2022/09/08 05:13:34;;;;;;;1.55;0.80;;;;;;;17.80;72.33;98246.66;5068598;28;20048;-66
2022/09/08 05:16:06;;;;;;;0.40;0.40;;;;;;;17.85;72.18;98237.88;5068298;28;20045;-66
2022/09/08 05:18:34;;;;;;;0.68;0.50;;;;;;;17.87;71.92;98253.66;5066806;28;20053;-66
2022/09/08 05:21:01;;;;;;;0.52;0.52;;;;;;;17.85;71.80;98263.81;5066418;28;20091;-66
2022/09/08 05:23:27;;;;;;;1.05;0.80;;;;;;;17.83;72.16;98272.88;5054713;28;20488;-65
2022/09/08 05:26:01;;;;;;;0.95;0.60;;;;;;;17.83;72.04;98277.41;5054164;28;20400;-66
2022/09/08 05:28:31;;;;;;;0.85;0.80;;;;;;;17.79;72.02;98289.66;5054954;28;20049;-65
2022/09/08 05:30:59;;;;;;;0.70;0.70;;;;;;;17.75;72.27;98286.69;5036847;28;20056;-66
2022/09/08 05:33:26;;;;;;;0.93;0.77;;;;;;;17.75;72.64;98294.69;5054889;28;20059;-66
2022/09/08 05:35:53;;;;;;;0.63;0.63;;;;;;;17.75;72.36;98299.25;5055126;28;20049;-66
2022/09/08 05:38:21;;;;;;;0.80;0.80;;;;;;;17.76;72.52;98292.84;5054661;28;20497;-66
2022/09/08 05:40:48;;;;;;;0.85;0.85;;;;;;;17.73;72.53;98294.13;5054877;28;20150;-67
2022/09/08 05:43:16;;;;;;;0.82;0.82;;;;;;;17.69;72.25;98297.56;5054775;28;20045;-66
2022/09/08 05:45:47;;;;;;;0.80;0.70;;;;;;;17.69;72.48;98300.22;5053252;28;20471;-67
2022/09/08 05:48:14;;;;;;;0.50;0.50;;;;;;;17.70;72.68;98296.50;5054161;28;20044;-67
2022/09/08 05:50:42;;;;;;;0.50;0.50;;;;;;;17.73;72.52;98290.66;5054216;28;20045;-65
2022/09/08 05:53:10;;;;;;;0.70;0.70;;;;;;;17.74;72.27;98290.41;5054447;28;20416;-64
2022/09/08 05:55:36;;;;;;;0.57;0.57;;;;;;;17.75;72.16;98297.38;5054203;28;20129;-65
2022/09/08 05:58:03;;;;;;;0.60;0.60;;;;;;;17.75;72.21;98297.38;5052890;28;20068;-65
2022/09/08 06:01:00;;;;;;;1.23;0.70;;;;;;;17.75;71.75;98294.69;5054219;28;20048;-65
2022/09/08 06:03:28;;;;;;;1.02;0.70;;;;;;;17.74;72.24;98301.13;5036053;28;20075;-65
2022/09/08 06:05:55;;;;;;;0.73;0.52;;;;;;;17.76;72.22;98293.66;5052782;28;20459;-66
2022/09/08 06:08:22;;;;;;;0.70;0.70;;;;;;;17.75;71.68;98299.25;5052562;28;20531;-65
2022/09/08 06:10:52;;;;;;;0.55;0.55;;;;;;;17.73;71.95;98307.50;5052535;28;20041;-66
2022/09/08 06:13:23;;;;;;;0.73;0.60;;;;;;;17.76;71.73;98307.03;5052597;28;20055;-66
2022/09/08 06:15:50;;;;;;;0.82;0.80;;;;;;;17.78;72.16;98309.44;5052531;28;20452;-65
2022/09/08 06:18:18;;;;;;;0.60;0.60;;;;;;;17.80;71.59;98316.16;5053509;28;20051;-66
2022/09/08 06:20:45;;;;;;;0.95;0.70;;;;;;;17.85;71.82;98306.59;5036097;28;20045;-66
2022/09/08 06:23:12;;;;;;;0.90;0.80;;;;;;;17.88;71.95;98316.75;5053675;28;20040;-65
2022/09/08 06:25:41;;;;;;;0.63;0.63;;;;;;;17.88;71.53;98322.94;5052648;28;20045;-67
2022/09/08 06:28:25;;;;;;;0.75;0.68;;;;;;;17.86;71.63;98330.38;5053509;28;20041;-65
2022/09/08 06:30:53;;;;;;;;;;;;;;;17.86;71.50;98325.03;5052831;28;20069;-65
2022/09/08 06:33:31;;;;;;;1.45;0.60;;;;;;;17.87;71.94;98326.66;5051110;28;19925;-66
2022/09/08 06:36:00;;;;;;;;;;;;;;;17.90;71.74;98328.03;5053956;28;20049;-66
2022/09/08 06:38:36;;;;;;;1.52;0.95;;;;;;;17.94;71.78;98324.59;5053542;28;19921;-66
2022/09/08 06:41:13;;;;;;;0.85;0.60;;;;;;;17.96;71.43;98327.00;5053206;28;20091;-66
2022/09/08 06:43:44;;;;;;;0.85;0.85;;;;;;;17.99;71.67;98338.00;5058351;28;20037;-65
2022/09/08 06:46:28;;;;;;;0.70;0.70;;;;;;;18.01;71.29;98335.91;5054521;28;20052;-65
2022/09/08 06:48:55;;;;;;;0.55;0.55;;;;;;;18.04;71.69;98335.41;5055563;28;20045;-66
2022/09/08 06:51:43;;;;;;;0.95;0.60;;;;;;;18.10;71.47;98333.56;5055964;28;20041;-66
2022/09/08 06:54:10;;;;;;;0.80;0.80;;;;;;;18.15;71.52;98341.63;5055827;28;20045;-66
2022/09/08 06:56:57;;;;;;;0.82;0.80;;;;;;;18.16;71.07;98332.56;5054420;28;20068;-65
2022/09/08 06:59:57;;;;;;;0.75;0.70;;;;;;;18.15;71.17;98330.13;5054134;28;20114;-65
2022/09/08 07:02:36;;;;;;;2.25;0.70;;;;;;;18.16;70.71;98335.22;5035851;28;20037;-65
2022/09/08 07:05:31;;;;;;;0.80;0.80;;;;;;;18.22;70.72;98333.44;5051859;28;20044;-64
2022/09/08 07:08:12;;;;;;;0.70;0.55;;;;;;;18.34;70.83;98333.28;5052810;28;20044;-66
2022/09/08 07:10:42;;;;;;;0.45;0.40;;;;;;;18.49;70.51;98338.72;5053017;28;20116;-66
2022/09/08 07:13:24;;;;;;;1.75;0.70;;;;;;;18.61;70.41;98333.22;5051456;28;20106;-66
2022/09/08 07:15:57;;;;;;;0.85;0.65;;;;;;;18.77;70.28;98343.00;5053019;28;20056;-67
2022/09/08 07:18:35;;;;;;;1.15;0.70;;;;;;;19.04;69.74;98337.56;5052592;28;20083;-66
2022/09/08 07:21:20;;;;;;;0.77;0.77;;;;;;;19.23;69.05;98329.91;5052940;28;20037;-67
2022/09/08 07:23:49;;;;;;;0.93;0.90;;;;;;;19.29;68.83;98331.53;5052611;28;20052;-66
2022/09/08 07:26:36;;;;;;;0.98;0.90;;;;;;;19.24;68.71;98340.38;5052553;28;20049;-67
2022/09/08 07:29:12;;;;;;;0.90;0.85;;;;;;;19.23;69.02;98336.06;5052524;28;20053;-66
2022/09/08 07:31:45;;;;;;;0.88;0.88;;;;;;;19.26;68.88;98342.78;5052535;28;20047;-66
2022/09/08 07:34:18;;;;;;;2.85;1.20;;;;;;;19.24;68.67;98350.28;5034980;28;20041;-66
2022/09/08 07:36:54;;;;;;;0.80;0.80;;;;;;;19.25;67.83;98351.88;5053103;28;20049;-66
2022/09/08 07:39:30;;;;;;;1.67;1.08;;;;;;;19.27;68.10;98350.56;5054058;28;20111;-66
2022/09/08 07:42:00;;;;;;;0.70;0.70;;;;;;;19.37;67.95;98349.81;5053074;28;20116;-66
2022/09/08 07:44:26;;;;;;;1.38;0.98;;;;;;;19.45;67.53;98354.66;5055740;28;20049;-66
2022/09/08 07:47:27;;;;;;;0.90;0.90;;;;;;;19.50;67.19;98357.38;5054714;28;20063;-66
2022/09/08 07:50:15;;;;;;;0.85;0.85;;;;;;;19.45;66.80;98356.53;5056954;28;20064;-66
2022/09/08 07:53:08;;;;;;;1.92;1.05;;;;;;;19.43;66.45;98364.03;5042916;28;20048;-67
2022/09/08 07:55:34;;;;;;;0.90;0.90;;;;;;;19.41;66.68;98366.97;5061042;28;20049;-65
2022/09/08 07:58:17;;;;;;;0.98;0.90;;;;;;;19.46;66.14;98371.56;5060299;28;20060;-65
2022/09/08 08:01:01;;;;;;;1.45;0.75;;;;;;;19.52;65.58;98381.25;5060409;28;20102;-65
2022/09/08 08:03:47;;;;;;;1.35;0.90;;;;;;;19.56;65.33;98374.28;5060193;28;20040;-65
2022/09/08 08:06:33;;;;;;;0.95;0.95;;;;;;;19.59;65.13;98373.75;5034338;28;20049;-65
2022/09/08 08:09:11;;;;;;;0.95;0.80;;;;;;;19.70;64.67;98374.66;5038497;28;20045;-66
2022/09/08 08:12:12;;;;;;;1.25;1.15;;;;;;;19.89;64.46;98375.00;5038568;28;20046;-66
2022/09/08 08:14:57;;;;;;;0.80;0.80;;;;;;;20.07;64.08;98379.88;5038704;28;20128;-66
2022/09/08 08:17:41;;;;;;;0.95;0.73;;;;;;;20.26;63.41;98385.56;5038457;28;20103;-65
2022/09/08 08:20:30;;;;;;;0.80;0.80;;;;;;;20.38;62.67;98388.78;5036091;28;20045;-67
2022/09/08 08:23:13;;;;;;;0.60;0.60;;;;;;;20.33;62.40;98401.38;5037328;28;20041;-67
2022/09/08 08:25:54;;;;;;;1.55;0.70;;;;;;;20.22;62.14;98408.63;5035758;28;20045;-70
2022/09/08 08:28:22;;;;;;;1.00;0.73;;;;;;;20.14;62.32;98409.13;5034096;28;20394;-67
2022/09/08 08:31:04;;;;;;;0.93;0.70;;;;;;;20.07;61.69;98406.69;5032727;28;20444;-67
2022/09/08 08:33:41;;;;;;;0.57;0.57;;;;;;;20.03;61.88;98414.47;5050176;28;20053;-67
2022/09/08 08:36:15;;;;;;;0.90;0.70;;;;;;;19.99;62.09;98410.69;5034377;28;20100;-70
2022/09/08 08:38:46;;;;;;;1.05;0.70;;;;;;;19.97;61.50;98412.03;5032031;28;20129;-70
2022/09/08 08:41:32;;;;;;;0.52;0.43;;;;;;;20.01;61.87;98413.94;5030620;28;20052;-68
2022/09/08 08:44:26;;;;;;;0.60;0.60;;;;;;;20.14;61.79;98411.81;5032663;28;20132;-67
2022/09/08 08:47:30;;;;;;;0.77;0.73;;;;;;;20.31;61.35;98419.66;5032349;28;20046;-67
2022/09/08 08:50:44;;;;;;;0.95;0.68;;;;;;;20.32;60.93;98414.00;5032694;28;20042;-67
2022/09/08 08:53:44;;;;;;;0.52;0.52;;;;;;;20.34;60.80;98413.75;5032567;28;20029;-68
2022/09/08 08:56:49;;;;;;;0.75;0.50;;;;;;;20.34;60.40;98416.44;5033163;28;20053;-66
2022/09/08 08:59:41;;;;;;;0.88;0.40;;;;;;;20.30;60.46;98402.75;5037619;28;20037;-66
2022/09/08 09:02:41;;;;;;;0.60;0.60;;;;;;;20.26;60.57;98407.03;5038295;28;20041;-66
2022/09/08 09:05:31;;;;;;;0.60;0.60;;;;;;;20.14;60.54;98414.50;5035997;28;20433;-64
2022/09/08 09:08:27;;;;;;;0.80;0.70;;;;;;;20.02;60.40;98415.53;5036742;28;20053;-65
2022/09/08 09:11:44;;;;;;;0.80;0.65;;;;;;;19.88;60.82;98421.63;5036132;28;20053;-68
2022/09/08 09:14:38;;;;;;;1.02;0.80;;;;;;;19.77;61.02;98420.81;5026581;28;20069;-67
2022/09/08 09:17:48;;;;;;;1.00;0.95;;;;;;;19.65;60.66;98423.69;5034647;28;20045;-67
2022/09/08 09:20:34;;;;;;;0.40;0.40;;;;;;;19.60;61.15;98422.84;5035154;28;20056;-67
2022/09/08 09:23:20;;;;;;;0.50;0.45;;;;;;;19.55;61.20;98429.78;5035448;28;20041;-67
2022/09/08 09:26:00;;;;;;;0.50;0.50;;;;;;;19.50;61.52;98421.69;5035396;28;20099;-67
2022/09/08 09:28:54;;;;;;;0.50;0.50;;;;;;;19.55;61.35;98428.97;5033718;28;20045;-67
2022/09/08 09:31:48;;;;;;;0.50;0.50;;;;;;;19.64;60.90;98432.81;5035367;28;20033;-67
2022/09/08 09:34:29;;;;;;;0.90;0.75;;;;;;;19.66;60.80;98432.53;5038399;28;20041;-68
2022/09/08 09:36:56;;;;;;;0.93;0.50;;;;;;;19.61;61.14;98433.34;5053535;28;20474;-67
2022/09/08 09:39:28;;;;;;;0.70;0.60;;;;;;;19.61;61.09;98430.66;5055479;28;20037;-67
2022/09/08 09:42:24;;;;;;;0.93;0.60;;;;;;;19.63;61.03;98422.34;5053993;28;20048;-68
2022/09/08 09:45:10;;;;;;;0.50;0.50;;;;;;;19.67;61.14;98421.53;5055290;28;20049;-67
2022/09/08 09:47:59;;;;;;;0.70;0.68;;;;;;;19.69;60.87;98427.47;5033017;28;20053;-68
2022/09/08 09:50:33;;;;;;;0.93;0.60;;;;;;;19.75;61.10;98417.56;5054290;28;20052;-66
2022/09/08 09:53:23;;;;;;;0.40;0.40;;;;;;;20.00;60.79;98416.84;5055512;28;20051;-66
2022/09/08 09:56:39;;;;;;;0.90;0.50;;;;;;;20.37;60.00;98424.78;5055274;28;20076;-66
2022/09/08 09:59:36;;;;;;;0.60;0.60;;;;;;;20.67;58.94;98409.81;5054094;28;20045;-67
2022/09/08 10:02:34;;;;;;;0.65;0.60;;;;;;;20.90;58.72;98413.81;5054947;28;20059;-67
2022/09/08 10:05:32;;;;;;;0.60;0.60;;;;;;;21.06;58.25;98410.03;5053909;28;20443;-66
2022/09/08 10:08:08;;;;;;;1.42;0.70;;;;;;;21.10;56.40;98413.00;5053220;28;20122;-67
2022/09/08 10:10:51;;;;;;;1.45;0.50;;;;;;;21.33;57.07;98408.97;5054472;28;20041;-66
2022/09/08 10:13:37;;;;;;;0.88;0.70;;;;;;;21.51;56.62;98405.69;5053215;28;20045;-67
2022/09/08 10:16:19;;;;;;;0.77;0.40;;;;;;;21.60;56.05;98401.38;5064737;22;20033;-68
2022/09/08 10:19:11;;;;;;;0.95;0.40;;;;;;;21.64;54.51;98405.13;5053230;28;20120;-66
2022/09/08 10:21:57;;;;;;;0.75;0.47;;;;;;;21.81;55.28;98412.88;5053785;28;20045;-68
2022/09/08 10:25:05;;;;;;;0.98;0.85;;;;;;;22.09;55.16;98391.75;5053711;28;20045;-68
2022/09/08 10:28:06;;;;;;;1.10;0.50;;;;;;;22.35;54.63;98403.22;5045468;28;20049;-68
2022/09/08 10:30:50;;;;;;;0.75;0.43;;;;;;;22.43;54.03;98410.69;5052388;28;20044;-68
2022/09/08 10:33:22;;;;;;;0.85;0.50;;;;;;;22.45;53.94;98395.88;5053620;28;20398;-68
2022/09/08 10:35:53;;;;;;;1.20;0.50;;;;;;;22.48;53.48;98403.38;5052223;28;20056;-69
2022/09/08 10:38:48;;;;;;;1.45;0.60;;;;;;;22.54;52.63;98403.38;5053740;28;20052;-68
2022/09/08 10:41:45;;;;;;;2.25;0.60;;;;;;;22.64;52.52;98403.28;5053683;28;20045;-68
2022/09/08 10:44:30;;;;;;;1.30;0.40;;;;;;;22.76;52.21;98409.13;5053827;28;20396;-67
2022/09/08 10:47:47;;;;;;;0.85;0.55;;;;;;;22.79;50.84;98410.44;5050177;28;20439;-68
2022/09/08 10:50:25;;;;;;;0.65;0.60;;;;;;;22.70;51.52;98402.97;5027223;28;20099;-66
2022/09/08 10:53:19;;;;;;;0.52;0.50;;;;;;;22.59;51.01;98398.75;5053196;28;20044;-67
2022/09/08 10:56:07;;;;;;;1.98;0.73;;;;;;;22.49;51.49;98396.09;5053164;28;20049;-66
2022/09/08 10:58:56;;;;;;;1.35;0.60;;;;;;;22.43;51.74;98399.94;5053452;28;20036;-66
2022/09/08 11:01:35;;;;;;;1.73;0.60;;;;;;;22.35;51.42;98395.13;5035324;28;20075;-66
2022/09/08 11:04:20;;;;;;;1.27;0.68;;;;;;;22.34;51.18;98401.63;5035464;28;20045;-66
2022/09/08 11:07:10;;;;;;;0.65;0.50;;;;;;;22.29;50.92;98394.38;5034980;28;20373;-66
2022/09/08 11:10:02;;;;;;;0.52;0.43;;;;;;;22.42;50.68;98401.03;5035417;28;20385;-68
2022/09/08 11:12:49;;;;;;;0.43;0.30;;;;;;;22.61;50.33;98395.75;5052758;28;20045;-68
2022/09/08 11:15:22;;;;;;;1.10;0.60;;;;;;;22.84;50.22;98396.94;5035242;28;20041;-68
2022/09/08 11:17:51;;;;;;;0.57;0.57;;;;;;;23.07;49.78;98393.53;5034542;28;20139;-69
2022/09/08 11:20:50;;;;;;;1.45;0.60;;;;;;;23.33;48.47;98388.69;5052342;28;20041;-68
2022/09/08 11:23:25;;;;;;;0.68;0.40;;;;;;;23.51;48.75;98397.91;5035099;28;20041;-69
2022/09/08 11:26:18;;;;;;;0.95;0.57;;;;;;;23.77;48.04;98397.66;5052506;28;20052;-68
2022/09/08 11:29:05;;;;;;;1.37;0.60;;;;;;;23.96;47.15;98393.09;4998093;28;20416;-69
2022/09/08 11:31:33;;;;;;;2.05;0.40;;;;;;;24.13;46.99;98403.41;5034547;28;20045;-68
2022/09/08 11:34:36;;;;;;;1.70;0.75;;;;;;;24.34;46.57;98396.63;5052387;28;20504;-68
2022/09/08 11:37:19;;;;;;;0.80;0.50;;;;;;;24.60;45.91;98383.56;5052069;28;20049;-69
2022/09/08 11:39:52;;;;;;;;;;;;;;;24.81;45.37;98392.16;5035187;28;20098;-71
2022/09/08 11:42:53;;;;;;;1.42;0.55;;;;;;;24.92;45.31;98388.19;5034736;28;19928;-69
2022/09/08 11:45:37;;;;;;;0.52;0.50;;;;;;;25.08;44.38;98386.00;5052207;28;20497;-68
2022/09/08 11:48:16;;;;;;;1.73;0.60;;;;;;;25.21;44.44;98392.56;5051635;28;20501;-68
2022/09/08 11:51:02;;;;;;;0.73;0.50;;;;;;;25.23;43.80;98389.56;5052182;28;20049;-68
2022/09/08 11:54:19;;;;;;;1.60;0.70;;;;;;;25.16;44.08;98379.94;5052043;28;20080;-68
2022/09/08 11:57:02;;;;;;;1.50;0.73;;;;;;;25.05;44.24;98385.81;5052788;28;20040;-69
2022/09/08 11:59:34;;;;;;;1.27;0.60;;;;;;;25.07;43.81;98392.53;5054403;28;20053;-67
2022/09/08 12:02:16;;;;;;;0.93;0.40;;;;;;;25.03;43.38;98394.22;5053955;28;20029;-70
2022/09/08 12:05:08;;;;;;;1.27;0.60;;;;;;;24.90;43.39;98384.97;5039413;28;20048;-70
2022/09/08 12:08:26;;;;;;;1.45;0.70;;;;;;;24.57;44.14;98380.66;5038269;28;20045;-70
2022/09/08 12:11:22;;;;;;;1.50;0.60;;;;;;;24.43;44.21;98377.91;5052795;28;20044;-68
2022/09/08 12:14:23;;;;;;;1.30;0.70;;;;;;;24.28;44.48;98380.78;4965926;28;20059;-68
2022/09/08 12:17:39;;;;;;;0.95;0.60;;;;;;;24.21;44.52;98384.66;5052207;28;20045;-68
2022/09/08 12:20:28;;;;;;;0.88;0.50;;;;;;;24.01;44.49;98376.03;5034278;28;20049;-67
2022/09/08 12:23:13;;;;;;;1.17;0.60;;;;;;;23.92;44.99;98379.41;5051993;28;20045;-66
2022/09/08 12:25:57;;;;;;;0.95;0.50;;;;;;;23.77;45.45;98381.47;5034099;28;20401;-67
2022/09/08 12:28:53;;;;;;;;;;;;;;;23.58;45.74;98376.78;5036356;28;20106;-66